sensor_id;sensor_type;location;lat;lon;timestamp;P1;durP1;ratioP1;P2;durP2;ratioP2
61960;SDS011;47923;42.506;24.192;2022-10-16T00:00:33;12.20;;;8.15;;
61960;SDS011;47923;42.506;24.192;2022-10-16T00:03:00;11.85;;;7.47;;
61960;SDS011;47923;42.506;24.192;2022-10-16T00:05:26;11.38;;;6.75;;
61960;SDS011;47923;42.506;24.192;2022-10-16T00:07:54;10.38;;;5.80;;
61960;SDS011;47923;42.506;24.192;2022-10-16T00:10:22;9.32;;;4.97;;
61960;SDS011;47923;42.506;24.192;2022-10-16T00:12:48;7.05;;;4.28;;
61960;SDS011;47923;42.506;24.192;2022-10-16T00:15:13;16.60;;;10.65;;
61960;SDS011;47923;42.506;24.192;2022-10-16T00:17:39;16.60;;;9.95;;
61960;SDS011;47923;42.506;24.192;2022-10-16T00:20:05;16.52;;;10.32;;
61960;SDS011;47923;42.506;24.192;2022-10-16T00:22:31;15.57;;;10.68;;
61960;SDS011;47923;42.506;24.192;2022-10-16T00:24:56;16.83;;;12.65;;
61960;SDS011;47923;42.506;24.192;2022-10-16T00:27:22;14.73;;;10.45;;
61960;SDS011;47923;42.506;24.192;2022-10-16T00:29:51;13.82;;;9.70;;
61960;SDS011;47923;42.506;24.192;2022-10-16T00:32:17;14.77;;;9.60;;
61960;SDS011;47923;42.506;24.192;2022-10-16T00:34:43;11.48;;;6.38;;
61960;SDS011;47923;42.506;24.192;2022-10-16T00:37:09;10.43;;;6.75;;
61960;SDS011;47923;42.506;24.192;2022-10-16T00:39:40;9.68;;;5.70;;
61960;SDS011;47923;42.506;24.192;2022-10-16T00:42:05;15.60;;;9.13;;
61960;SDS011;47923;42.506;24.192;2022-10-16T00:50:01;10.50;;;6.93;;
61960;SDS011;47923;42.506;24.192;2022-10-16T00:52:32;12.05;;;7.00;;
61960;SDS011;47923;42.506;24.192;2022-10-16T00:54:57;11.57;;;6.22;;
61960;SDS011;47923;42.506;24.192;2022-10-16T00:57:23;10.50;;;6.10;;
61960;SDS011;47923;42.506;24.192;2022-10-16T00:59:50;11.43;;;6.07;;
61960;SDS011;47923;42.506;24.192;2022-10-16T01:02:16;14.48;;;8.27;;
61960;SDS011;47923;42.506;24.192;2022-10-16T01:04:46;11.50;;;6.70;;
61960;SDS011;47923;42.506;24.192;2022-10-16T01:12:58;11.50;;;7.05;;
61960;SDS011;47923;42.506;24.192;2022-10-16T01:20:42;10.05;;;5.20;;
61960;SDS011;47923;42.506;24.192;2022-10-16T01:28:34;10.68;;;6.50;;
61960;SDS011;47923;42.506;24.192;2022-10-16T01:31:04;11.68;;;7.07;;
61960;SDS011;47923;42.506;24.192;2022-10-16T01:33:36;12.60;;;6.75;;
61960;SDS011;47923;42.506;24.192;2022-10-16T01:36:17;10.27;;;5.88;;
61960;SDS011;47923;42.506;24.192;2022-10-16T01:38:52;9.80;;;5.63;;
61960;SDS011;47923;42.506;24.192;2022-10-16T01:41:24;10.32;;;5.75;;
61960;SDS011;47923;42.506;24.192;2022-10-16T01:44:08;10.00;;;5.53;;
61960;SDS011;47923;42.506;24.192;2022-10-16T01:46:40;12.55;;;6.28;;
61960;SDS011;47923;42.506;24.192;2022-10-16T01:49:15;10.65;;;6.35;;
61960;SDS011;47923;42.506;24.192;2022-10-16T01:51:44;12.45;;;7.40;;
61960;SDS011;47923;42.506;24.192;2022-10-16T01:54:15;10.88;;;6.70;;
61960;SDS011;47923;42.506;24.192;2022-10-16T01:56:44;12.05;;;6.95;;
61960;SDS011;47923;42.506;24.192;2022-10-16T01:59:12;10.40;;;5.90;;
61960;SDS011;47923;42.506;24.192;2022-10-16T02:01:42;10.52;;;6.18;;
61960;SDS011;47923;42.506;24.192;2022-10-16T02:04:14;10.52;;;6.00;;
61960;SDS011;47923;42.506;24.192;2022-10-16T02:06:44;11.07;;;6.25;;
61960;SDS011;47923;42.506;24.192;2022-10-16T02:09:09;11.18;;;6.20;;
61960;SDS011;47923;42.506;24.192;2022-10-16T02:11:35;12.65;;;6.47;;
61960;SDS011;47923;42.506;24.192;2022-10-16T02:14:02;14.52;;;8.52;;
61960;SDS011;47923;42.506;24.192;2022-10-16T02:16:38;14.63;;;9.30;;
61960;SDS011;47923;42.506;24.192;2022-10-16T02:19:05;13.80;;;8.55;;
61960;SDS011;47923;42.506;24.192;2022-10-16T02:24:14;10.82;;;7.97;;
61960;SDS011;47923;42.506;24.192;2022-10-16T02:26:51;14.48;;;7.75;;
61960;SDS011;47923;42.506;24.192;2022-10-16T02:29:30;10.25;;;6.30;;
61960;SDS011;47923;42.506;24.192;2022-10-16T02:32:01;11.55;;;6.30;;
61960;SDS011;47923;42.506;24.192;2022-10-16T02:34:32;10.63;;;6.57;;
61960;SDS011;47923;42.506;24.192;2022-10-16T02:37:01;13.23;;;6.13;;
61960;SDS011;47923;42.506;24.192;2022-10-16T02:39:29;12.18;;;6.18;;
61960;SDS011;47923;42.506;24.192;2022-10-16T02:41:56;11.02;;;6.38;;
61960;SDS011;47923;42.506;24.192;2022-10-16T02:44:21;11.25;;;6.35;;
61960;SDS011;47923;42.506;24.192;2022-10-16T02:46:47;15.65;;;10.30;;
61960;SDS011;47923;42.506;24.192;2022-10-16T02:49:12;15.43;;;8.98;;
61960;SDS011;47923;42.506;24.192;2022-10-16T02:51:40;14.30;;;8.80;;
61960;SDS011;47923;42.506;24.192;2022-10-16T02:54:06;14.05;;;11.05;;
61960;SDS011;47923;42.506;24.192;2022-10-16T02:56:31;14.18;;;8.95;;
61960;SDS011;47923;42.506;24.192;2022-10-16T02:58:59;13.55;;;9.77;;
61960;SDS011;47923;42.506;24.192;2022-10-16T03:01:25;13.05;;;8.80;;
61960;SDS011;47923;42.506;24.192;2022-10-16T03:03:51;13.27;;;8.30;;
61960;SDS011;47923;42.506;24.192;2022-10-16T03:06:19;11.18;;;7.05;;
61960;SDS011;47923;42.506;24.192;2022-10-16T03:08:48;15.45;;;7.70;;
61960;SDS011;47923;42.506;24.192;2022-10-16T03:11:13;11.60;;;6.85;;
61960;SDS011;47923;42.506;24.192;2022-10-16T03:13:39;11.32;;;6.22;;
61960;SDS011;47923;42.506;24.192;2022-10-16T03:16:04;10.20;;;6.28;;
61960;SDS011;47923;42.506;24.192;2022-10-16T03:18:30;13.00;;;7.13;;
61960;SDS011;47923;42.506;24.192;2022-10-16T03:20:55;11.70;;;6.97;;
61960;SDS011;47923;42.506;24.192;2022-10-16T03:23:21;12.70;;;7.47;;
61960;SDS011;47923;42.506;24.192;2022-10-16T03:25:46;11.52;;;6.82;;
61960;SDS011;47923;42.506;24.192;2022-10-16T03:28:12;10.25;;;6.43;;
61960;SDS011;47923;42.506;24.192;2022-10-16T03:30:37;9.90;;;6.35;;
61960;SDS011;47923;42.506;24.192;2022-10-16T03:33:04;10.88;;;6.95;;
61960;SDS011;47923;42.506;24.192;2022-10-16T03:35:30;9.23;;;5.85;;
61960;SDS011;47923;42.506;24.192;2022-10-16T03:37:55;11.32;;;7.55;;
61960;SDS011;47923;42.506;24.192;2022-10-16T03:40:21;12.00;;;7.07;;
61960;SDS011;47923;42.506;24.192;2022-10-16T03:42:46;12.20;;;7.47;;
61960;SDS011;47923;42.506;24.192;2022-10-16T03:45:12;13.30;;;7.82;;
61960;SDS011;47923;42.506;24.192;2022-10-16T03:47:37;12.25;;;7.63;;
61960;SDS011;47923;42.506;24.192;2022-10-16T03:50:03;11.65;;;7.22;;
61960;SDS011;47923;42.506;24.192;2022-10-16T03:52:29;10.40;;;6.35;;
61960;SDS011;47923;42.506;24.192;2022-10-16T03:54:55;10.23;;;6.30;;
61960;SDS011;47923;42.506;24.192;2022-10-16T03:57:20;11.23;;;6.90;;
61960;SDS011;47923;42.506;24.192;2022-10-16T03:59:46;11.48;;;7.95;;
61960;SDS011;47923;42.506;24.192;2022-10-16T04:02:12;12.05;;;7.57;;
61960;SDS011;47923;42.506;24.192;2022-10-16T04:04:37;10.27;;;6.22;;
61960;SDS011;47923;42.506;24.192;2022-10-16T04:07:03;13.60;;;8.00;;
61960;SDS011;47923;42.506;24.192;2022-10-16T04:09:29;10.38;;;6.13;;
61960;SDS011;47923;42.506;24.192;2022-10-16T04:11:54;11.80;;;6.65;;
61960;SDS011;47923;42.506;24.192;2022-10-16T04:14:19;9.90;;;5.65;;
61960;SDS011;47923;42.506;24.192;2022-10-16T04:16:45;15.73;;;7.32;;
61960;SDS011;47923;42.506;24.192;2022-10-16T04:19:10;14.27;;;7.68;;
61960;SDS011;47923;42.506;24.192;2022-10-16T04:21:36;17.38;;;9.95;;
61960;SDS011;47923;42.506;24.192;2022-10-16T04:24:02;16.23;;;10.38;;
61960;SDS011;47923;42.506;24.192;2022-10-16T04:26:27;18.95;;;11.55;;
61960;SDS011;47923;42.506;24.192;2022-10-16T04:28:53;17.95;;;10.43;;
61960;SDS011;47923;42.506;24.192;2022-10-16T04:31:19;20.63;;;11.45;;
61960;SDS011;47923;42.506;24.192;2022-10-16T04:33:45;17.40;;;10.70;;
61960;SDS011;47923;42.506;24.192;2022-10-16T04:36:10;15.85;;;10.20;;
61960;SDS011;47923;42.506;24.192;2022-10-16T04:38:36;17.05;;;10.30;;
61960;SDS011;47923;42.506;24.192;2022-10-16T04:41:02;17.17;;;10.80;;
61960;SDS011;47923;42.506;24.192;2022-10-16T04:43:29;17.92;;;11.55;;
61960;SDS011;47923;42.506;24.192;2022-10-16T04:45:54;16.75;;;10.77;;
61960;SDS011;47923;42.506;24.192;2022-10-16T04:48:21;19.17;;;13.27;;
61960;SDS011;47923;42.506;24.192;2022-10-16T04:50:47;16.70;;;12.10;;
61960;SDS011;47923;42.506;24.192;2022-10-16T04:53:12;16.95;;;10.80;;
61960;SDS011;47923;42.506;24.192;2022-10-16T04:55:38;13.32;;;9.48;;
61960;SDS011;47923;42.506;24.192;2022-10-16T04:58:04;13.07;;;8.73;;
61960;SDS011;47923;42.506;24.192;2022-10-16T05:00:30;14.57;;;8.23;;
61960;SDS011;47923;42.506;24.192;2022-10-16T05:02:55;12.90;;;8.05;;
61960;SDS011;47923;42.506;24.192;2022-10-16T05:05:22;16.38;;;9.18;;
61960;SDS011;47923;42.506;24.192;2022-10-16T05:07:48;20.30;;;12.45;;
61960;SDS011;47923;42.506;24.192;2022-10-16T05:10:14;27.55;;;18.13;;
61960;SDS011;47923;42.506;24.192;2022-10-16T05:12:40;31.08;;;21.40;;
61960;SDS011;47923;42.506;24.192;2022-10-16T05:15:06;28.30;;;19.80;;
61960;SDS011;47923;42.506;24.192;2022-10-16T05:17:32;26.38;;;17.75;;
61960;SDS011;47923;42.506;24.192;2022-10-16T05:19:57;24.40;;;17.55;;
61960;SDS011;47923;42.506;24.192;2022-10-16T05:22:23;24.42;;;16.20;;
61960;SDS011;47923;42.506;24.192;2022-10-16T05:24:48;39.13;;;22.30;;
61960;SDS011;47923;42.506;24.192;2022-10-16T05:27:13;90.88;;;49.75;;
61960;SDS011;47923;42.506;24.192;2022-10-16T05:29:47;49.53;;;26.02;;
61960;SDS011;47923;42.506;24.192;2022-10-16T05:32:14;31.92;;;19.75;;
61960;SDS011;47923;42.506;24.192;2022-10-16T05:34:41;33.15;;;20.65;;
61960;SDS011;47923;42.506;24.192;2022-10-16T05:37:06;42.60;;;26.02;;
61960;SDS011;47923;42.506;24.192;2022-10-16T05:39:32;26.55;;;18.20;;
61960;SDS011;47923;42.506;24.192;2022-10-16T05:41:58;22.52;;;14.23;;
61960;SDS011;47923;42.506;24.192;2022-10-16T05:44:23;16.10;;;10.55;;
61960;SDS011;47923;42.506;24.192;2022-10-16T05:46:49;32.67;;;21.15;;
61960;SDS011;47923;42.506;24.192;2022-10-16T05:49:14;25.05;;;17.30;;
61960;SDS011;47923;42.506;24.192;2022-10-16T05:51:40;28.33;;;18.98;;
61960;SDS011;47923;42.506;24.192;2022-10-16T05:54:07;35.08;;;23.17;;
61960;SDS011;47923;42.506;24.192;2022-10-16T05:56:35;27.92;;;20.33;;
61960;SDS011;47923;42.506;24.192;2022-10-16T05:59:00;21.70;;;15.05;;
61960;SDS011;47923;42.506;24.192;2022-10-16T06:01:28;21.13;;;16.67;;
61960;SDS011;47923;42.506;24.192;2022-10-16T06:03:56;26.88;;;24.15;;
61960;SDS011;47923;42.506;24.192;2022-10-16T06:06:23;16.95;;;14.85;;
61960;SDS011;47923;42.506;24.192;2022-10-16T06:08:54;18.40;;;14.35;;
61960;SDS011;47923;42.506;24.192;2022-10-16T06:11:22;16.33;;;11.52;;
61960;SDS011;47923;42.506;24.192;2022-10-16T06:13:53;13.63;;;10.00;;
61960;SDS011;47923;42.506;24.192;2022-10-16T06:16:21;14.23;;;7.50;;
61960;SDS011;47923;42.506;24.192;2022-10-16T06:18:47;10.05;;;6.07;;
61960;SDS011;47923;42.506;24.192;2022-10-16T06:21:16;8.77;;;5.47;;
61960;SDS011;47923;42.506;24.192;2022-10-16T06:23:44;14.98;;;9.23;;
61960;SDS011;47923;42.506;24.192;2022-10-16T06:26:14;11.02;;;8.02;;
61960;SDS011;47923;42.506;24.192;2022-10-16T06:28:42;10.10;;;6.10;;
61960;SDS011;47923;42.506;24.192;2022-10-16T06:31:08;8.02;;;5.40;;
61960;SDS011;47923;42.506;24.192;2022-10-16T06:33:35;8.57;;;4.68;;
61960;SDS011;47923;42.506;24.192;2022-10-16T06:36:11;8.15;;;5.43;;
61960;SDS011;47923;42.506;24.192;2022-10-16T06:38:39;8.88;;;5.72;;
61960;SDS011;47923;42.506;24.192;2022-10-16T06:41:06;10.70;;;7.45;;
61960;SDS011;47923;42.506;24.192;2022-10-16T06:43:32;8.45;;;4.45;;
61960;SDS011;47923;42.506;24.192;2022-10-16T06:46:00;9.90;;;6.80;;
61960;SDS011;47923;42.506;24.192;2022-10-16T06:48:27;10.32;;;6.28;;
61960;SDS011;47923;42.506;24.192;2022-10-16T06:50:57;10.07;;;5.68;;
61960;SDS011;47923;42.506;24.192;2022-10-16T06:53:28;9.95;;;5.57;;
61960;SDS011;47923;42.506;24.192;2022-10-16T06:55:55;9.05;;;6.25;;
61960;SDS011;47923;42.506;24.192;2022-10-16T06:58:21;8.95;;;6.00;;
61960;SDS011;47923;42.506;24.192;2022-10-16T07:00:47;14.20;;;8.32;;
61960;SDS011;47923;42.506;24.192;2022-10-16T07:03:12;10.95;;;7.85;;
61960;SDS011;47923;42.506;24.192;2022-10-16T07:05:39;11.65;;;7.72;;
61960;SDS011;47923;42.506;24.192;2022-10-16T07:08:05;13.98;;;7.47;;
61960;SDS011;47923;42.506;24.192;2022-10-16T07:10:31;10.32;;;7.25;;
61960;SDS011;47923;42.506;24.192;2022-10-16T07:12:57;10.98;;;6.72;;
61960;SDS011;47923;42.506;24.192;2022-10-16T07:15:22;10.75;;;6.28;;
61960;SDS011;47923;42.506;24.192;2022-10-16T07:17:49;8.85;;;5.75;;
61960;SDS011;47923;42.506;24.192;2022-10-16T07:20:15;10.50;;;6.25;;
61960;SDS011;47923;42.506;24.192;2022-10-16T07:22:40;8.52;;;5.03;;
61960;SDS011;47923;42.506;24.192;2022-10-16T07:25:06;11.93;;;6.63;;
61960;SDS011;47923;42.506;24.192;2022-10-16T07:27:32;8.75;;;5.70;;
61960;SDS011;47923;42.506;24.192;2022-10-16T07:29:57;9.88;;;5.55;;
61960;SDS011;47923;42.506;24.192;2022-10-16T07:32:23;8.63;;;4.80;;
61960;SDS011;47923;42.506;24.192;2022-10-16T07:34:50;8.73;;;4.78;;
61960;SDS011;47923;42.506;24.192;2022-10-16T07:37:16;8.48;;;5.30;;
61960;SDS011;47923;42.506;24.192;2022-10-16T07:39:42;8.25;;;5.20;;
61960;SDS011;47923;42.506;24.192;2022-10-16T07:42:07;9.90;;;5.28;;
61960;SDS011;47923;42.506;24.192;2022-10-16T07:44:33;8.27;;;3.50;;
61960;SDS011;47923;42.506;24.192;2022-10-16T07:46:58;8.07;;;4.75;;
61960;SDS011;47923;42.506;24.192;2022-10-16T07:49:24;6.63;;;4.10;;
61960;SDS011;47923;42.506;24.192;2022-10-16T07:51:49;9.90;;;4.15;;
61960;SDS011;47923;42.506;24.192;2022-10-16T07:54:15;9.07;;;3.80;;
61960;SDS011;47923;42.506;24.192;2022-10-16T07:56:40;7.35;;;3.40;;
61960;SDS011;47923;42.506;24.192;2022-10-16T07:59:06;7.28;;;3.33;;
61960;SDS011;47923;42.506;24.192;2022-10-16T08:01:31;8.70;;;3.08;;
61960;SDS011;47923;42.506;24.192;2022-10-16T08:03:57;7.45;;;3.30;;
61960;SDS011;47923;42.506;24.192;2022-10-16T08:06:22;8.18;;;2.90;;
61960;SDS011;47923;42.506;24.192;2022-10-16T08:08:48;6.60;;;3.05;;
61960;SDS011;47923;42.506;24.192;2022-10-16T08:11:16;5.40;;;2.83;;
61960;SDS011;47923;42.506;24.192;2022-10-16T08:13:41;8.63;;;2.80;;
61960;SDS011;47923;42.506;24.192;2022-10-16T08:16:07;7.47;;;2.55;;
61960;SDS011;47923;42.506;24.192;2022-10-16T08:18:35;6.38;;;2.75;;
61960;SDS011;47923;42.506;24.192;2022-10-16T08:21:01;6.30;;;3.03;;
61960;SDS011;47923;42.506;24.192;2022-10-16T08:23:28;8.10;;;3.47;;
61960;SDS011;47923;42.506;24.192;2022-10-16T08:25:56;4.75;;;2.80;;
61960;SDS011;47923;42.506;24.192;2022-10-16T08:28:37;4.82;;;3.10;;
61960;SDS011;47923;42.506;24.192;2022-10-16T08:31:10;5.32;;;2.92;;
61960;SDS011;47923;42.506;24.192;2022-10-16T08:33:48;5.85;;;2.70;;
61960;SDS011;47923;42.506;24.192;2022-10-16T08:36:30;9.50;;;2.78;;
61960;SDS011;47923;42.506;24.192;2022-10-16T08:38:55;5.78;;;2.80;;
61960;SDS011;47923;42.506;24.192;2022-10-16T08:41:22;8.23;;;3.00;;
61960;SDS011;47923;42.506;24.192;2022-10-16T08:44:04;4.05;;;2.40;;
61960;SDS011;47923;42.506;24.192;2022-10-16T08:49:21;9.38;;;3.17;;
61960;SDS011;47923;42.506;24.192;2022-10-16T08:51:49;5.78;;;2.80;;
61960;SDS011;47923;42.506;24.192;2022-10-16T08:56:44;5.97;;;2.70;;
61960;SDS011;47923;42.506;24.192;2022-10-16T08:59:10;5.05;;;2.80;;
61960;SDS011;47923;42.506;24.192;2022-10-16T09:01:40;8.32;;;3.20;;
61960;SDS011;47923;42.506;24.192;2022-10-16T09:12:00;6.15;;;2.63;;
61960;SDS011;47923;42.506;24.192;2022-10-16T09:20:19;6.38;;;2.90;;
61960;SDS011;47923;42.506;24.192;2022-10-16T09:22:55;5.53;;;2.47;;
61960;SDS011;47923;42.506;24.192;2022-10-16T09:25:28;5.95;;;2.88;;
61960;SDS011;47923;42.506;24.192;2022-10-16T09:27:53;5.97;;;2.50;;
61960;SDS011;47923;42.506;24.192;2022-10-16T09:30:20;6.30;;;2.75;;
61960;SDS011;47923;42.506;24.192;2022-10-16T09:32:51;7.72;;;2.75;;
61960;SDS011;47923;42.506;24.192;2022-10-16T09:35:22;5.50;;;2.55;;
61960;SDS011;47923;42.506;24.192;2022-10-16T09:37:56;6.13;;;3.30;;
61960;SDS011;47923;42.506;24.192;2022-10-16T09:40:26;8.18;;;3.17;;
61960;SDS011;47923;42.506;24.192;2022-10-16T09:43:02;8.32;;;3.15;;
61960;SDS011;47923;42.506;24.192;2022-10-16T09:45:39;4.75;;;2.67;;
61960;SDS011;47923;42.506;24.192;2022-10-16T09:48:11;6.97;;;3.05;;
61960;SDS011;47923;42.506;24.192;2022-10-16T09:50:38;5.18;;;2.80;;
61960;SDS011;47923;42.506;24.192;2022-10-16T09:53:11;8.07;;;2.97;;
61960;SDS011;47923;42.506;24.192;2022-10-16T09:55:47;5.18;;;2.42;;
61960;SDS011;47923;42.506;24.192;2022-10-16T09:58:16;5.82;;;2.72;;
61960;SDS011;47923;42.506;24.192;2022-10-16T10:00:42;6.30;;;2.80;;
61960;SDS011;47923;42.506;24.192;2022-10-16T10:03:37;7.20;;;2.95;;
61960;SDS011;47923;42.506;24.192;2022-10-16T10:06:13;5.50;;;2.55;;
61960;SDS011;47923;42.506;24.192;2022-10-16T10:11:50;5.03;;;2.92;;
61960;SDS011;47923;42.506;24.192;2022-10-16T10:14:52;3.92;;;2.40;;
61960;SDS011;47923;42.506;24.192;2022-10-16T10:19:40;7.25;;;2.78;;
61960;SDS011;47923;42.506;24.192;2022-10-16T10:39:14;4.78;;;2.63;;
61960;SDS011;47923;42.506;24.192;2022-10-16T10:41:59;6.40;;;2.65;;
61960;SDS011;47923;42.506;24.192;2022-10-16T10:44:55;5.57;;;2.75;;
61960;SDS011;47923;42.506;24.192;2022-10-16T10:50:14;5.57;;;2.80;;
61960;SDS011;47923;42.506;24.192;2022-10-16T11:01:12;5.23;;;2.60;;
61960;SDS011;47923;42.506;24.192;2022-10-16T11:09:15;5.05;;;2.83;;
61960;SDS011;47923;42.506;24.192;2022-10-16T11:12:01;5.88;;;2.88;;
61960;SDS011;47923;42.506;24.192;2022-10-16T11:14:36;5.70;;;2.40;;
61960;SDS011;47923;42.506;24.192;2022-10-16T11:17:08;7.75;;;2.65;;
61960;SDS011;47923;42.506;24.192;2022-10-16T11:19:56;4.85;;;2.83;;
61960;SDS011;47923;42.506;24.192;2022-10-16T11:30:41;5.53;;;2.60;;
61960;SDS011;47923;42.506;24.192;2022-10-16T11:33:19;7.13;;;3.08;;
61960;SDS011;47923;42.506;24.192;2022-10-16T11:36:04;8.85;;;2.60;;
61960;SDS011;47923;42.506;24.192;2022-10-16T11:38:47;6.35;;;3.25;;
61960;SDS011;47923;42.506;24.192;2022-10-16T11:43:43;6.30;;;3.03;;
61960;SDS011;47923;42.506;24.192;2022-10-16T11:46:18;6.32;;;3.10;;
61960;SDS011;47923;42.506;24.192;2022-10-16T11:49:03;5.90;;;2.90;;
61960;SDS011;47923;42.506;24.192;2022-10-16T11:51:38;6.80;;;3.22;;
61960;SDS011;47923;42.506;24.192;2022-10-16T11:54:14;6.57;;;3.03;;
61960;SDS011;47923;42.506;24.192;2022-10-16T11:56:48;5.90;;;2.60;;
61960;SDS011;47923;42.506;24.192;2022-10-16T11:59:22;7.88;;;3.33;;
61960;SDS011;47923;42.506;24.192;2022-10-16T12:01:53;5.65;;;2.88;;
61960;SDS011;47923;42.506;24.192;2022-10-16T12:04:39;6.75;;;3.28;;
61960;SDS011;47923;42.506;24.192;2022-10-16T12:07:18;6.30;;;3.20;;
61960;SDS011;47923;42.506;24.192;2022-10-16T12:09:51;8.40;;;3.60;;
61960;SDS011;47923;42.506;24.192;2022-10-16T12:17:53;7.35;;;3.35;;
61960;SDS011;47923;42.506;24.192;2022-10-16T12:20:24;8.40;;;3.70;;
61960;SDS011;47923;42.506;24.192;2022-10-16T12:22:59;6.07;;;3.22;;
61960;SDS011;47923;42.506;24.192;2022-10-16T12:28:04;7.80;;;3.38;;
61960;SDS011;47923;42.506;24.192;2022-10-16T12:30:42;5.35;;;2.92;;
61960;SDS011;47923;42.506;24.192;2022-10-16T12:36:00;6.97;;;3.33;;
61960;SDS011;47923;42.506;24.192;2022-10-16T12:38:35;7.00;;;3.33;;
61960;SDS011;47923;42.506;24.192;2022-10-16T12:41:10;6.35;;;3.00;;
61960;SDS011;47923;42.506;24.192;2022-10-16T12:43:44;6.43;;;3.03;;
61960;SDS011;47923;42.506;24.192;2022-10-16T12:48:37;6.65;;;2.97;;
61960;SDS011;47923;42.506;24.192;2022-10-16T12:51:23;7.93;;;3.03;;
61960;SDS011;47923;42.506;24.192;2022-10-16T12:54:02;5.32;;;2.65;;
61960;SDS011;47923;42.506;24.192;2022-10-16T13:02:43;7.50;;;3.50;;
61960;SDS011;47923;42.506;24.192;2022-10-16T13:25:24;5.57;;;2.80;;
61960;SDS011;47923;42.506;24.192;2022-10-16T13:28:04;6.18;;;3.17;;
61960;SDS011;47923;42.506;24.192;2022-10-16T13:30:39;7.63;;;3.80;;
61960;SDS011;47923;42.506;24.192;2022-10-16T13:36:17;11.85;;;3.42;;
61960;SDS011;47923;42.506;24.192;2022-10-16T13:38:59;7.13;;;3.50;;
61960;SDS011;47923;42.506;24.192;2022-10-16T13:44:36;6.53;;;3.10;;
61960;SDS011;47923;42.506;24.192;2022-10-16T13:47:39;7.72;;;3.33;;
61960;SDS011;47923;42.506;24.192;2022-10-16T13:50:25;5.20;;;2.80;;
61960;SDS011;47923;42.506;24.192;2022-10-16T13:53:14;7.10;;;3.30;;
61960;SDS011;47923;42.506;24.192;2022-10-16T13:55:44;7.90;;;3.88;;
61960;SDS011;47923;42.506;24.192;2022-10-16T13:58:13;6.72;;;3.00;;
61960;SDS011;47923;42.506;24.192;2022-10-16T14:00:56;6.30;;;3.42;;
61960;SDS011;47923;42.506;24.192;2022-10-16T14:03:27;8.00;;;4.00;;
61960;SDS011;47923;42.506;24.192;2022-10-16T14:05:58;7.68;;;3.78;;
61960;SDS011;47923;42.506;24.192;2022-10-16T14:08:26;8.90;;;4.35;;
61960;SDS011;47923;42.506;24.192;2022-10-16T14:10:54;7.25;;;3.75;;
61960;SDS011;47923;42.506;24.192;2022-10-16T14:13:56;7.68;;;3.50;;
61960;SDS011;47923;42.506;24.192;2022-10-16T14:16:17;8.07;;;3.88;;
61960;SDS011;47923;42.506;24.192;2022-10-16T14:19:03;5.95;;;3.22;;
61960;SDS011;47923;42.506;24.192;2022-10-16T14:21:35;8.75;;;3.33;;
61960;SDS011;47923;42.506;24.192;2022-10-16T14:26:52;8.38;;;3.85;;
61960;SDS011;47923;42.506;24.192;2022-10-16T14:29:21;10.23;;;4.63;;
61960;SDS011;47923;42.506;24.192;2022-10-16T14:31:58;9.65;;;4.07;;
61960;SDS011;47923;42.506;24.192;2022-10-16T14:37:24;7.63;;;3.55;;
61960;SDS011;47923;42.506;24.192;2022-10-16T14:39:51;7.20;;;3.58;;
61960;SDS011;47923;42.506;24.192;2022-10-16T14:42:18;9.05;;;5.68;;
61960;SDS011;47923;42.506;24.192;2022-10-16T14:44:48;9.90;;;5.03;;
61960;SDS011;47923;42.506;24.192;2022-10-16T14:47:20;8.25;;;4.95;;
61960;SDS011;47923;42.506;24.192;2022-10-16T14:49:51;8.73;;;4.95;;
61960;SDS011;47923;42.506;24.192;2022-10-16T14:52:20;8.52;;;4.30;;
61960;SDS011;47923;42.506;24.192;2022-10-16T14:54:49;13.27;;;6.10;;
61960;SDS011;47923;42.506;24.192;2022-10-16T14:57:18;10.18;;;5.53;;
61960;SDS011;47923;42.506;24.192;2022-10-16T14:59:46;14.32;;;8.00;;
61960;SDS011;47923;42.506;24.192;2022-10-16T15:02:18;12.10;;;5.63;;
61960;SDS011;47923;42.506;24.192;2022-10-16T15:04:58;9.23;;;4.97;;
61960;SDS011;47923;42.506;24.192;2022-10-16T15:07:35;8.27;;;4.82;;
61960;SDS011;47923;42.506;24.192;2022-10-16T15:10:01;9.80;;;5.82;;
61960;SDS011;47923;42.506;24.192;2022-10-16T15:12:26;8.23;;;4.88;;
61960;SDS011;47923;42.506;24.192;2022-10-16T15:14:51;9.98;;;5.45;;
61960;SDS011;47923;42.506;24.192;2022-10-16T15:17:17;13.85;;;6.50;;
61960;SDS011;47923;42.506;24.192;2022-10-16T15:19:42;11.52;;;5.40;;
61960;SDS011;47923;42.506;24.192;2022-10-16T15:22:09;12.73;;;7.45;;
61960;SDS011;47923;42.506;24.192;2022-10-16T15:24:36;16.40;;;10.00;;
61960;SDS011;47923;42.506;24.192;2022-10-16T15:27:02;14.50;;;8.27;;
61960;SDS011;47923;42.506;24.192;2022-10-16T15:29:27;48.03;;;39.00;;
61960;SDS011;47923;42.506;24.192;2022-10-16T15:31:53;31.15;;;23.55;;
61960;SDS011;47923;42.506;24.192;2022-10-16T15:34:18;25.45;;;18.67;;
61960;SDS011;47923;42.506;24.192;2022-10-16T15:36:44;20.15;;;13.75;;
61960;SDS011;47923;42.506;24.192;2022-10-16T15:39:12;22.88;;;15.60;;
61960;SDS011;47923;42.506;24.192;2022-10-16T15:41:42;25.45;;;18.50;;
61960;SDS011;47923;42.506;24.192;2022-10-16T15:44:09;26.50;;;20.60;;
61960;SDS011;47923;42.506;24.192;2022-10-16T15:46:35;49.72;;;36.70;;
61960;SDS011;47923;42.506;24.192;2022-10-16T15:49:02;29.85;;;23.70;;
61960;SDS011;47923;42.506;24.192;2022-10-16T15:51:28;42.30;;;32.83;;
61960;SDS011;47923;42.506;24.192;2022-10-16T15:53:55;97.32;;;71.40;;
61960;SDS011;47923;42.506;24.192;2022-10-16T15:56:22;49.10;;;35.17;;
61960;SDS011;47923;42.506;24.192;2022-10-16T15:58:49;41.97;;;26.80;;
61960;SDS011;47923;42.506;24.192;2022-10-16T16:01:14;25.75;;;19.98;;
61960;SDS011;47923;42.506;24.192;2022-10-16T16:03:40;18.05;;;12.88;;
61960;SDS011;47923;42.506;24.192;2022-10-16T16:06:06;23.13;;;16.90;;
61960;SDS011;47923;42.506;24.192;2022-10-16T16:08:34;28.70;;;18.85;;
61960;SDS011;47923;42.506;24.192;2022-10-16T16:11:03;33.28;;;24.63;;
61960;SDS011;47923;42.506;24.192;2022-10-16T16:13:29;18.52;;;12.48;;
61960;SDS011;47923;42.506;24.192;2022-10-16T16:15:55;19.23;;;11.98;;
61960;SDS011;47923;42.506;24.192;2022-10-16T16:18:21;27.90;;;16.13;;
61960;SDS011;47923;42.506;24.192;2022-10-16T16:20:47;25.08;;;13.90;;
61960;SDS011;47923;42.506;24.192;2022-10-16T16:23:13;16.65;;;10.10;;
61960;SDS011;47923;42.506;24.192;2022-10-16T16:25:38;15.65;;;10.30;;
61960;SDS011;47923;42.506;24.192;2022-10-16T16:28:04;16.60;;;10.05;;
61960;SDS011;47923;42.506;24.192;2022-10-16T16:30:29;17.05;;;10.90;;
61960;SDS011;47923;42.506;24.192;2022-10-16T16:32:55;17.70;;;11.43;;
61960;SDS011;47923;42.506;24.192;2022-10-16T16:35:20;18.95;;;11.48;;
61960;SDS011;47923;42.506;24.192;2022-10-16T16:37:46;24.55;;;15.75;;
61960;SDS011;47923;42.506;24.192;2022-10-16T16:40:12;19.80;;;12.23;;
61960;SDS011;47923;42.506;24.192;2022-10-16T16:42:38;18.00;;;9.77;;
61960;SDS011;47923;42.506;24.192;2022-10-16T16:45:04;13.07;;;8.57;;
61960;SDS011;47923;42.506;24.192;2022-10-16T16:47:29;13.40;;;7.82;;
61960;SDS011;47923;42.506;24.192;2022-10-16T16:49:55;13.98;;;7.60;;
61960;SDS011;47923;42.506;24.192;2022-10-16T16:52:20;13.05;;;6.57;;
61960;SDS011;47923;42.506;24.192;2022-10-16T16:54:47;12.77;;;7.10;;
61960;SDS011;47923;42.506;24.192;2022-10-16T16:57:17;17.80;;;9.35;;
61960;SDS011;47923;42.506;24.192;2022-10-16T16:59:44;10.80;;;6.68;;